createdAt,value
2017-04-20T00:00:00.208Z,0
2017-04-20T00:00:40.798Z,0
2017-04-20T00:01:21.373Z,0
2017-04-20T00:02:01.967Z,0
2017-04-20T00:02:42.555Z,0
2017-04-20T00:03:23.162Z,0
2017-04-20T00:04:03.808Z,0
2017-04-20T00:04:44.351Z,0
2017-04-20T00:05:24.968Z,0
2017-04-20T00:06:05.576Z,0
2017-04-20T00:06:46.155Z,0
2017-04-20T00:07:26.791Z,0
2017-04-20T00:08:07.386Z,0
2017-04-20T00:08:47.988Z,0
2017-04-20T00:09:28.561Z,0
2017-04-20T00:10:09.173Z,0
2017-04-20T00:10:49.751Z,0
2017-04-20T00:11:30.310Z,0
2017-04-20T00:12:10.925Z,0
2017-04-20T00:12:51.508Z,0
2017-04-20T00:13:32.106Z,0
2017-04-20T00:14:12.692Z,0
2017-04-20T00:14:53.279Z,0
2017-04-20T00:15:33.864Z,0
2017-04-20T00:16:14.440Z,0
2017-04-20T00:16:55.022Z,0
2017-04-20T00:17:35.639Z,0
2017-04-20T00:18:16.218Z,0
2017-04-20T00:18:56.828Z,0
2017-04-20T00:19:40.801Z,0
2017-04-20T00:20:21.461Z,0
2017-04-20T00:21:02.079Z,0
2017-04-20T00:21:42.652Z,0
2017-04-20T00:22:23.263Z,0
2017-04-20T00:23:03.819Z,0
2017-04-20T00:23:44.407Z,0
2017-04-20T00:24:24.960Z,0
2017-04-20T00:25:05.524Z,0
2017-04-20T00:25:46.221Z,0
2017-04-20T00:26:26.810Z,0
2017-04-20T00:27:07.373Z,0
2017-04-20T00:27:47.966Z,0
2017-04-20T00:28:28.610Z,0
2017-04-20T00:29:09.285Z,0
2017-04-20T00:29:49.859Z,0
2017-04-20T00:30:30.441Z,0
2017-04-20T00:31:11.025Z,0
2017-04-20T00:31:51.677Z,0
2017-04-20T00:32:32.259Z,0
2017-04-20T00:33:12.850Z,0
2017-04-20T00:33:53.447Z,0
2017-04-20T00:34:34.006Z,0
2017-04-20T00:35:14.582Z,0
2017-04-20T00:35:55.188Z,0
2017-04-20T00:36:35.808Z,0
2017-04-20T00:37:16.413Z,0
2017-04-20T00:37:57.034Z,0
2017-04-20T00:38:37.604Z,0
2017-04-20T00:39:18.170Z,0
2017-04-20T00:39:58.780Z,0
2017-04-20T00:40:39.361Z,0
2017-04-20T00:41:19.924Z,0
2017-04-20T00:42:00.525Z,0
2017-04-20T00:42:41.089Z,0
2017-04-20T00:43:21.692Z,0
2017-04-20T00:44:02.280Z,0
2017-04-20T00:44:42.950Z,0
2017-04-20T00:45:23.600Z,0
2017-04-20T00:46:04.206Z,0
2017-04-20T00:46:44.779Z,0
2017-04-20T00:47:25.357Z,0
2017-04-20T00:48:05.984Z,0
2017-04-20T00:48:46.555Z,0
2017-04-20T00:49:27.148Z,0
2017-04-20T00:50:07.805Z,0
2017-04-20T00:50:48.396Z,0
2017-04-20T00:51:28.982Z,0
2017-04-20T00:52:09.560Z,0
2017-04-20T00:52:50.142Z,0
2017-04-20T00:53:30.815Z,0
2017-04-20T00:54:11.389Z,0
2017-04-20T00:54:51.967Z,0
2017-04-20T00:55:32.578Z,0
2017-04-20T00:56:13.153Z,0
2017-04-20T00:56:53.756Z,0
2017-04-20T00:57:34.331Z,0
2017-04-20T00:58:14.942Z,0
2017-04-20T00:58:55.559Z,0
2017-04-20T00:59:36.147Z,0
2017-04-20T01:00:16.762Z,0
2017-04-20T01:00:57.344Z,0
2017-04-20T01:01:37.960Z,0
2017-04-20T01:02:18.542Z,0
2017-04-20T01:02:59.120Z,0
2017-04-20T01:03:39.696Z,0
2017-04-20T01:04:20.315Z,0
2017-04-20T01:05:00.932Z,0
2017-04-20T01:05:41.550Z,0
2017-04-20T01:06:22.168Z,0
2017-04-20T01:07:02.776Z,0
2017-04-20T01:07:43.364Z,0
2017-04-20T01:08:23.960Z,0
2017-04-20T01:09:04.551Z,0
2017-04-20T01:09:45.125Z,0
2017-04-20T01:10:25.731Z,0
2017-04-20T01:11:06.277Z,0
2017-04-20T01:11:46.847Z,0
2017-04-20T01:12:27.439Z,0
2017-04-20T01:13:08.055Z,0
2017-04-20T01:13:48.659Z,0
2017-04-20T01:14:29.243Z,0
2017-04-20T01:15:09.809Z,0
2017-04-20T01:15:50.389Z,0
2017-04-20T01:16:31.000Z,0
2017-04-20T01:17:11.596Z,0
2017-04-20T01:17:52.193Z,0
2017-04-20T01:18:32.782Z,0
2017-04-20T01:19:13.386Z,0
2017-04-20T01:19:54.023Z,0
2017-04-20T01:20:34.598Z,0
2017-04-20T01:21:15.197Z,0
2017-04-20T01:21:55.836Z,0
2017-04-20T01:22:36.411Z,0
2017-04-20T01:23:16.992Z,0
2017-04-20T01:23:57.570Z,0
2017-04-20T01:24:38.137Z,0
2017-04-20T01:25:18.699Z,0
2017-04-20T01:25:59.280Z,0
2017-04-20T01:26:39.841Z,0
2017-04-20T01:27:20.408Z,0
2017-04-20T01:28:00.986Z,0
2017-04-20T01:28:41.592Z,0
2017-04-20T01:29:22.181Z,0
2017-04-20T01:30:02.774Z,0
2017-04-20T01:30:43.356Z,0
2017-04-20T01:31:23.932Z,0
2017-04-20T01:32:04.512Z,0
2017-04-20T01:32:45.073Z,0
2017-04-20T01:33:25.663Z,0
2017-04-20T01:34:06.342Z,0
2017-04-20T01:34:46.909Z,0
2017-04-20T01:35:27.482Z,0
2017-04-20T01:36:08.052Z,0
2017-04-20T01:36:48.633Z,0
2017-04-20T01:37:29.235Z,0
2017-04-20T01:38:09.834Z,0
2017-04-20T01:38:50.422Z,0
2017-04-20T01:39:30.992Z,0
2017-04-20T01:40:11.643Z,0
2017-04-20T01:40:52.240Z,0
2017-04-20T01:41:32.830Z,0
2017-04-20T01:42:13.430Z,0
2017-04-20T01:42:53.989Z,0
2017-04-20T01:43:34.612Z,0
2017-04-20T01:44:15.185Z,0
2017-04-20T01:44:55.752Z,0
2017-04-20T01:45:36.338Z,0
2017-04-20T01:46:16.951Z,0
2017-04-20T01:46:57.564Z,0
2017-04-20T01:47:38.165Z,0
2017-04-20T01:48:18.764Z,0
2017-04-20T01:48:59.357Z,0
2017-04-20T01:49:39.920Z,0
2017-04-20T01:50:20.480Z,0
2017-04-20T01:51:01.074Z,0
2017-04-20T01:51:41.649Z,0
2017-04-20T01:52:22.263Z,0
2017-04-20T01:53:02.876Z,0
2017-04-20T01:53:43.459Z,0
2017-04-20T01:54:24.017Z,0
2017-04-20T01:55:04.589Z,0
2017-04-20T01:55:45.209Z,0
2017-04-20T01:56:25.745Z,0
2017-04-20T01:57:06.346Z,0
2017-04-20T01:57:46.921Z,0
2017-04-20T01:58:27.505Z,0
2017-04-20T01:59:08.083Z,0
2017-04-20T01:59:48.665Z,0
2017-04-20T02:00:29.237Z,0
2017-04-20T02:01:09.829Z,0
2017-04-20T02:01:50.404Z,0
2017-04-20T02:02:30.969Z,0
2017-04-20T02:03:11.531Z,0
2017-04-20T02:03:52.100Z,0
2017-04-20T02:04:32.689Z,0
2017-04-20T02:05:13.255Z,0
2017-04-20T02:05:53.825Z,0
2017-04-20T02:06:34.409Z,0
2017-04-20T02:07:14.984Z,0
2017-04-20T02:07:55.553Z,0
2017-04-20T02:08:36.125Z,0
2017-04-20T02:09:16.699Z,0
2017-04-20T02:09:57.285Z,0
2017-04-20T02:10:37.847Z,0
2017-04-20T02:11:18.417Z,0
2017-04-20T02:11:58.986Z,0
2017-04-20T02:12:39.574Z,0
2017-04-20T02:13:20.136Z,0
2017-04-20T02:14:00.721Z,0
2017-04-20T02:14:41.303Z,0
2017-04-20T02:15:21.924Z,0
2017-04-20T02:16:02.496Z,0
2017-04-20T02:16:43.062Z,0
2017-04-20T02:17:23.623Z,0
2017-04-20T02:18:04.215Z,0
2017-04-20T02:18:44.815Z,0
2017-04-20T02:19:25.374Z,0
2017-04-20T02:20:05.952Z,0
2017-04-20T02:20:46.520Z,0
2017-04-20T02:21:27.093Z,0
2017-04-20T02:22:07.654Z,0
2017-04-20T02:22:48.229Z,0
2017-04-20T02:23:28.810Z,0
2017-04-20T02:24:09.414Z,0
2017-04-20T02:24:50.062Z,0
2017-04-20T02:25:30.653Z,0
2017-04-20T02:26:11.228Z,0
2017-04-20T02:26:51.846Z,0
2017-04-20T02:27:32.431Z,0
2017-04-20T02:28:13.026Z,0
2017-04-20T02:28:53.631Z,0
2017-04-20T02:29:34.204Z,0
2017-04-20T02:30:14.769Z,0
2017-04-20T02:30:55.348Z,0
2017-04-20T02:31:35.926Z,0
2017-04-20T02:32:16.502Z,0
2017-04-20T02:32:57.064Z,0
2017-04-20T02:33:37.627Z,0
2017-04-20T02:34:18.211Z,0
2017-04-20T02:34:58.848Z,0
2017-04-20T02:35:39.419Z,0
2017-04-20T02:36:19.996Z,0
2017-04-20T02:37:00.582Z,0
2017-04-20T02:37:41.159Z,0
2017-04-20T02:38:21.733Z,0
2017-04-20T02:39:02.306Z,0
2017-04-20T02:39:42.887Z,0
2017-04-20T02:40:23.463Z,0
2017-04-20T02:41:04.037Z,0
2017-04-20T02:41:44.605Z,0
2017-04-20T02:42:25.185Z,0
2017-04-20T02:43:05.772Z,0
2017-04-20T02:43:46.341Z,0
2017-04-20T02:44:26.907Z,0
2017-04-20T02:45:07.484Z,0
2017-04-20T02:45:48.044Z,0
2017-04-20T02:46:28.639Z,0
2017-04-20T02:47:09.203Z,0
2017-04-20T02:47:49.761Z,0
2017-04-20T02:48:30.331Z,0
2017-04-20T02:49:10.905Z,0
2017-04-20T02:49:51.472Z,0
2017-04-20T02:50:32.040Z,0
2017-04-20T02:51:12.632Z,0
2017-04-20T02:51:53.205Z,0
2017-04-20T02:52:33.796Z,0
2017-04-20T02:53:14.371Z,0
2017-04-20T02:53:54.977Z,0
2017-04-20T02:54:35.590Z,0
2017-04-20T02:55:16.187Z,0
2017-04-20T02:55:56.779Z,0
2017-04-20T02:56:37.341Z,0
2017-04-20T02:57:17.936Z,0
2017-04-20T02:57:58.510Z,0
2017-04-20T02:58:39.069Z,0
2017-04-20T02:59:19.656Z,0
2017-04-20T03:00:00.234Z,0
2017-04-20T03:00:40.830Z,0
2017-04-20T03:01:21.426Z,0
2017-04-20T03:02:02.001Z,0
2017-04-20T03:02:42.570Z,0
2017-04-20T03:03:23.166Z,0
2017-04-20T03:04:03.779Z,0
2017-04-20T03:04:44.368Z,0
2017-04-20T03:05:24.921Z,0
2017-04-20T03:06:05.512Z,0
2017-04-20T03:06:46.118Z,0
2017-04-20T03:07:26.718Z,0
2017-04-20T03:08:07.366Z,0
2017-04-20T03:08:48.002Z,0
2017-04-20T03:09:28.590Z,0
2017-04-20T03:10:09.203Z,0
2017-04-20T03:10:49.790Z,0
2017-04-20T03:11:30.345Z,0
2017-04-20T03:12:10.929Z,0
2017-04-20T03:12:51.505Z,0
2017-04-20T03:13:32.082Z,0
2017-04-20T03:14:12.686Z,0
2017-04-20T03:14:53.330Z,0
2017-04-20T03:15:33.899Z,0
2017-04-20T03:16:14.467Z,0
2017-04-20T03:16:55.082Z,0
2017-04-20T03:17:35.667Z,0
2017-04-20T03:18:16.275Z,0
2017-04-20T03:18:56.856Z,0
2017-04-20T03:19:37.510Z,0
2017-04-20T03:20:18.077Z,0
2017-04-20T03:20:58.664Z,0
2017-04-20T03:21:39.259Z,0
2017-04-20T03:22:19.834Z,0
2017-04-20T03:23:00.431Z,0
2017-04-20T03:23:41.038Z,0
2017-04-20T03:24:21.599Z,0
2017-04-20T03:25:02.183Z,0
2017-04-20T03:25:42.801Z,0
2017-04-20T03:26:23.367Z,0
2017-04-20T03:27:03.973Z,0
2017-04-20T03:27:44.541Z,0
2017-04-20T03:28:25.127Z,0
2017-04-20T03:29:05.770Z,0
2017-04-20T03:29:46.348Z,0
2017-04-20T03:30:26.979Z,0
2017-04-20T03:31:07.602Z,0
2017-04-20T03:31:48.199Z,0
2017-04-20T03:32:28.814Z,0
2017-04-20T03:33:09.431Z,0
2017-04-20T03:33:49.989Z,0
2017-04-20T03:34:30.577Z,0
2017-04-20T03:35:11.155Z,0
2017-04-20T03:35:51.713Z,0
2017-04-20T03:36:32.290Z,0
2017-04-20T03:37:12.915Z,0
2017-04-20T03:37:53.531Z,0
2017-04-20T03:38:34.088Z,0
2017-04-20T03:39:14.671Z,0
2017-04-20T03:39:55.273Z,0
2017-04-20T03:40:35.851Z,0
2017-04-20T03:41:16.449Z,0
2017-04-20T03:41:57.024Z,0
2017-04-20T03:42:37.610Z,0
2017-04-20T03:43:18.203Z,0
2017-04-20T03:43:58.757Z,0
2017-04-20T03:44:39.326Z,0
2017-04-20T03:45:19.902Z,0
2017-04-20T03:46:00.477Z,0
2017-04-20T03:46:41.097Z,0
2017-04-20T03:47:21.734Z,0
2017-04-20T03:48:02.297Z,0
2017-04-20T03:48:42.915Z,0
2017-04-20T03:49:23.480Z,0
2017-04-20T03:50:04.064Z,0
2017-04-20T03:50:44.666Z,0
2017-04-20T03:51:25.241Z,0
2017-04-20T03:52:05.874Z,0
2017-04-20T03:52:46.499Z,0
2017-04-20T03:53:27.057Z,0
2017-04-20T03:54:07.648Z,0
2017-04-20T03:54:48.244Z,0
2017-04-20T03:55:28.849Z,0
2017-04-20T03:56:09.451Z,0
2017-04-20T03:56:50.075Z,0
2017-04-20T03:57:30.665Z,0
2017-04-20T03:58:11.276Z,0
2017-04-20T03:58:51.871Z,0
2017-04-20T03:59:32.447Z,5
2017-04-20T04:00:13.021Z,5
2017-04-20T04:00:53.627Z,5
2017-04-20T04:01:34.221Z,5
2017-04-20T04:02:14.812Z,5
2017-04-20T04:02:55.498Z,5
2017-04-20T04:03:36.008Z,5
2017-04-20T04:04:16.605Z,5
2017-04-20T04:04:57.197Z,5
2017-04-20T04:05:37.790Z,5
2017-04-20T04:06:18.385Z,5
2017-04-20T04:06:58.992Z,5
2017-04-20T04:07:39.579Z,5
2017-04-20T04:08:20.181Z,5
2017-04-20T04:09:00.781Z,10
2017-04-20T04:09:41.377Z,10
2017-04-20T04:10:21.943Z,10
2017-04-20T04:11:02.539Z,10
2017-04-20T04:11:43.128Z,10
2017-04-20T04:12:23.710Z,10
2017-04-20T04:13:04.297Z,10
2017-04-20T04:13:44.860Z,10
2017-04-20T04:14:25.473Z,10
2017-04-20T04:15:06.049Z,10
2017-04-20T04:15:46.657Z,10
2017-04-20T04:16:27.260Z,15
2017-04-20T04:17:07.897Z,15
2017-04-20T04:17:48.451Z,15
2017-04-20T04:18:29.063Z,15
2017-04-20T04:19:09.666Z,15
2017-04-20T04:19:50.309Z,15
2017-04-20T04:20:30.920Z,15
2017-04-20T04:21:11.517Z,15
2017-04-20T04:21:52.226Z,15
2017-04-20T04:22:32.804Z,20
2017-04-20T04:23:13.379Z,20
2017-04-20T04:23:53.973Z,20
2017-04-20T04:24:34.563Z,20
2017-04-20T04:25:15.164Z,20
2017-04-20T04:25:55.806Z,20
2017-04-20T04:26:36.386Z,20
2017-04-20T04:27:17.005Z,20
2017-04-20T04:27:57.604Z,25
2017-04-20T04:28:38.188Z,25
2017-04-20T04:29:18.791Z,25
2017-04-20T04:29:59.381Z,25
2017-04-20T04:30:39.975Z,25
2017-04-20T04:31:20.591Z,25
2017-04-20T04:32:01.196Z,25
2017-04-20T04:32:41.850Z,25
2017-04-20T04:33:22.475Z,25
2017-04-20T04:34:03.119Z,30
2017-04-20T04:34:43.738Z,30
2017-04-20T04:35:24.321Z,30
2017-04-20T04:36:04.949Z,30
2017-04-20T04:36:45.516Z,30
2017-04-20T04:37:26.110Z,30
2017-04-20T04:38:06.701Z,30
2017-04-20T04:38:47.296Z,35
2017-04-20T04:39:27.910Z,35
2017-04-20T04:40:08.485Z,35
2017-04-20T04:40:49.033Z,35
2017-04-20T04:41:29.619Z,35
2017-04-20T04:42:10.253Z,35
2017-04-20T04:42:50.825Z,40
2017-04-20T04:43:31.417Z,40
2017-04-20T04:44:12.036Z,40
2017-04-20T04:44:52.592Z,40
2017-04-20T04:45:33.174Z,40
2017-04-20T04:46:13.746Z,45
2017-04-20T04:46:54.353Z,45
2017-04-20T04:47:34.951Z,45
2017-04-20T04:48:15.560Z,45
2017-04-20T04:48:56.196Z,45
2017-04-20T04:49:36.793Z,45
2017-04-20T04:50:17.370Z,45
2017-04-20T04:50:57.987Z,45
2017-04-20T04:51:38.580Z,45
2017-04-20T04:52:19.212Z,45
2017-04-20T04:52:59.823Z,45
2017-04-20T04:53:40.377Z,45
2017-04-20T04:54:20.961Z,45
2017-04-20T04:55:01.534Z,50
2017-04-20T04:55:42.145Z,50
2017-04-20T04:56:22.752Z,50
2017-04-20T04:57:03.381Z,55
2017-04-20T04:57:43.936Z,55
2017-04-20T04:58:24.555Z,60
2017-04-20T04:59:05.122Z,60
2017-04-20T04:59:45.715Z,60
2017-04-20T05:00:26.338Z,60
2017-04-20T05:01:06.932Z,60
2017-04-20T05:01:47.543Z,65
2017-04-20T05:02:28.129Z,65
2017-04-20T05:03:08.745Z,65
2017-04-20T05:03:49.343Z,65
2017-04-20T05:04:29.917Z,65
2017-04-20T05:05:10.506Z,65
2017-04-20T05:05:51.125Z,65
2017-04-20T05:06:31.734Z,65
2017-04-20T05:07:12.314Z,70
2017-04-20T05:07:52.984Z,70
2017-04-20T05:08:33.581Z,70
2017-04-20T05:09:14.169Z,70
2017-04-20T05:09:54.754Z,70
2017-04-20T05:10:35.546Z,70
2017-04-20T05:11:16.113Z,70
2017-04-20T05:11:56.698Z,70
2017-04-20T05:12:37.263Z,70
2017-04-20T05:13:17.866Z,70
2017-04-20T05:13:58.454Z,70
2017-04-20T05:14:39.061Z,70
2017-04-20T05:15:19.643Z,70
2017-04-20T05:16:00.213Z,70
2017-04-20T05:16:40.791Z,70
2017-04-20T05:17:21.379Z,65
2017-04-20T05:18:02.012Z,65
2017-04-20T05:18:42.608Z,70
2017-04-20T05:19:23.186Z,70
2017-04-20T05:20:03.821Z,70
2017-04-20T05:20:44.424Z,65
2017-04-20T05:21:25.020Z,65
2017-04-20T05:22:05.652Z,65
2017-04-20T05:22:46.254Z,65
2017-04-20T05:23:26.836Z,60
2017-04-20T05:24:07.428Z,65
2017-04-20T05:24:48.045Z,65
2017-04-20T05:25:28.617Z,65
2017-04-20T05:26:09.190Z,65
2017-04-20T05:26:49.762Z,70
2017-04-20T05:27:30.369Z,75
2017-04-20T05:28:11.025Z,75
2017-04-20T05:28:51.603Z,80
2017-04-20T05:29:32.198Z,85
2017-04-20T05:30:12.793Z,85
2017-04-20T05:30:53.403Z,90
2017-04-20T05:31:34.021Z,90
2017-04-20T05:32:14.800Z,90
2017-04-20T05:32:55.405Z,85
2017-04-20T05:33:36.032Z,90
2017-04-20T05:34:16.611Z,90
2017-04-20T05:34:57.172Z,90
2017-04-20T05:35:37.793Z,90
2017-04-20T05:36:18.362Z,90
2017-04-20T05:36:58.972Z,90
2017-04-20T05:37:39.565Z,90
2017-04-20T05:38:20.141Z,90
2017-04-20T05:39:00.823Z,90
2017-04-20T05:39:41.386Z,90
2017-04-20T05:40:21.964Z,90
2017-04-20T05:41:02.547Z,90
2017-04-20T05:41:43.122Z,95
2017-04-20T05:42:23.713Z,100
2017-04-20T05:43:04.315Z,105
2017-04-20T05:43:44.896Z,105
2017-04-20T05:44:25.482Z,110
2017-04-20T05:45:06.102Z,110
2017-04-20T05:45:46.831Z,110
2017-04-20T05:46:27.434Z,110
2017-04-20T05:47:08.033Z,110
2017-04-20T05:47:48.628Z,110
2017-04-20T05:48:29.212Z,110
2017-04-20T05:49:09.832Z,110
2017-04-20T05:49:50.412Z,105
2017-04-20T05:50:31.031Z,105
2017-04-20T05:51:11.607Z,105
2017-04-20T05:51:52.196Z,105
2017-04-20T05:52:32.875Z,105
2017-04-20T05:53:13.469Z,105
2017-04-20T05:53:54.082Z,105
2017-04-20T05:54:34.683Z,100
2017-04-20T05:55:15.261Z,100
2017-04-20T05:55:55.839Z,100
2017-04-20T05:56:36.475Z,100
2017-04-20T05:57:17.047Z,105
2017-04-20T05:57:57.614Z,105
2017-04-20T05:58:38.260Z,110
2017-04-20T05:59:18.843Z,115
2017-04-20T05:59:59.447Z,120
2017-04-20T06:00:40.132Z,120
2017-04-20T06:01:20.784Z,120
2017-04-20T06:02:01.310Z,125
2017-04-20T06:02:41.901Z,125
2017-04-20T06:03:22.545Z,125
2017-04-20T06:04:03.158Z,130
2017-04-20T06:04:43.793Z,130
2017-04-20T06:05:24.368Z,135
2017-04-20T06:06:04.985Z,135
2017-04-20T06:06:45.569Z,135
2017-04-20T06:07:26.142Z,135
2017-04-20T06:08:06.732Z,140
2017-04-20T06:08:47.422Z,145
2017-04-20T06:09:28.073Z,150
2017-04-20T06:10:08.741Z,160
2017-04-20T06:10:49.328Z,170
2017-04-20T06:11:30.010Z,185
2017-04-20T06:12:10.601Z,205
2017-04-20T06:12:51.183Z,220
2017-04-20T06:13:31.752Z,215
2017-04-20T06:14:12.328Z,225
2017-04-20T06:14:52.932Z,240
2017-04-20T06:15:33.513Z,245
2017-04-20T06:16:14.108Z,295
2017-04-20T06:16:54.690Z,345
2017-04-20T06:17:35.283Z,375
2017-04-20T06:18:15.936Z,475
2017-04-20T06:18:56.515Z,630
2017-04-20T06:19:37.125Z,660
2017-04-20T06:20:17.703Z,770
2017-04-20T06:20:58.313Z,930
2017-04-20T06:21:38.979Z,1095
2017-04-20T06:22:19.563Z,1310
2017-04-20T06:23:00.136Z,1155
2017-04-20T06:23:40.736Z,1160
2017-04-20T06:24:21.341Z,765
2017-04-20T06:25:02.037Z,720
2017-04-20T06:25:42.611Z,1110
2017-04-20T06:26:23.197Z,820
2017-04-20T06:27:03.818Z,1150
2017-04-20T06:27:44.472Z,1065
2017-04-20T06:28:25.116Z,1255
2017-04-20T06:29:05.709Z,1550
2017-04-20T06:29:46.299Z,1350
2017-04-20T06:30:26.960Z,1185
2017-04-20T06:31:07.500Z,1610
2017-04-20T06:31:48.094Z,1780
2017-04-20T06:32:28.685Z,1545
2017-04-20T06:33:09.302Z,1520
2017-04-20T06:33:49.920Z,1600
2017-04-20T06:34:30.473Z,1620
2017-04-20T06:35:11.061Z,1690
2017-04-20T06:35:51.699Z,1590
2017-04-20T06:36:32.290Z,1665
2017-04-20T06:37:12.942Z,1650
2017-04-20T06:37:53.489Z,1690
2017-04-20T06:38:34.087Z,1645
2017-04-20T06:39:14.692Z,1625
2017-04-20T06:39:55.340Z,1670
2017-04-20T06:40:35.963Z,1745
2017-04-20T06:41:16.603Z,1760
2017-04-20T06:41:57.237Z,1810
2017-04-20T06:42:37.841Z,1790
2017-04-20T06:43:18.465Z,1820
2017-04-20T06:43:59.076Z,1810
2017-04-20T06:44:39.744Z,1755
2017-04-20T06:45:20.332Z,1820
2017-04-20T06:46:00.935Z,1910
2017-04-20T06:46:41.567Z,1835
2017-04-20T06:47:22.175Z,1820
2017-04-20T06:48:02.769Z,1850
2017-04-20T06:48:43.377Z,1895
2017-04-20T06:49:23.972Z,1855
2017-04-20T06:50:04.569Z,1830
2017-04-20T06:50:45.203Z,1845
2017-04-20T06:51:25.815Z,1735
2017-04-20T06:52:06.461Z,1735
2017-04-20T06:52:47.074Z,1805
2017-04-20T06:53:27.911Z,1880
2017-04-20T06:54:08.517Z,1815
2017-04-20T06:54:49.138Z,1890
2017-04-20T06:55:30.422Z,1900
2017-04-20T06:56:11.348Z,1970
2017-04-20T06:56:51.962Z,1885
2017-04-20T06:57:32.578Z,1885
2017-04-20T06:58:13.213Z,1925
2017-04-20T06:58:53.815Z,1930
2017-04-20T06:59:34.418Z,1940
2017-04-20T07:00:15.025Z,1925
2017-04-20T07:00:55.609Z,1940
2017-04-20T07:01:36.596Z,1965
2017-04-20T07:02:17.191Z,1925
2017-04-20T07:02:57.825Z,1875
2017-04-20T07:03:38.450Z,1960
2017-04-20T07:04:19.053Z,1990
2017-04-20T07:04:59.659Z,1955
2017-04-20T07:05:40.268Z,1875
2017-04-20T07:06:20.891Z,1845
2017-04-20T07:07:01.484Z,1850
2017-04-20T07:07:42.060Z,1850
2017-04-20T07:08:22.651Z,1865
2017-04-20T07:09:03.264Z,1780
2017-04-20T07:09:43.865Z,1825
2017-04-20T07:10:24.553Z,1845
2017-04-20T07:11:05.160Z,1820
2017-04-20T07:11:45.794Z,1795
2017-04-20T07:12:26.420Z,1655
2017-04-20T07:13:06.962Z,1765
2017-04-20T07:13:47.534Z,1445
2017-04-20T07:14:28.150Z,1445
2017-04-20T07:15:08.733Z,1370
2017-04-20T07:15:49.304Z,660
2017-04-20T07:16:29.913Z,1545
2017-04-20T07:17:10.488Z,1650
2017-04-20T07:17:51.081Z,1905
2017-04-20T07:18:31.669Z,1730
2017-04-20T07:19:12.290Z,1785
2017-04-20T07:19:52.881Z,1655
2017-04-20T07:20:33.597Z,1685
2017-04-20T07:21:14.186Z,1720
2017-04-20T07:21:54.794Z,1730
2017-04-20T07:22:35.368Z,1665
2017-04-20T07:23:16.001Z,1630
2017-04-20T07:23:56.619Z,1595
2017-04-20T07:24:37.215Z,1515
2017-04-20T07:25:17.790Z,1470
2017-04-20T07:25:58.408Z,1440
2017-04-20T07:26:39.020Z,1375
2017-04-20T07:27:19.606Z,1335
2017-04-20T07:28:00.215Z,1295
2017-04-20T07:28:40.799Z,1240
2017-04-20T07:29:21.412Z,1130
2017-04-20T07:30:02.004Z,1035
2017-04-20T07:30:42.635Z,965
2017-04-20T07:31:23.288Z,930
2017-04-20T07:32:03.908Z,880
2017-04-20T07:32:44.522Z,845
2017-04-20T07:33:25.136Z,800
2017-04-20T07:34:05.727Z,760
2017-04-20T07:34:46.318Z,725
2017-04-20T07:35:26.908Z,705
2017-04-20T07:36:07.523Z,675
2017-04-20T07:36:48.153Z,660
2017-04-20T07:37:28.781Z,635
2017-04-20T07:38:09.397Z,625
2017-04-20T07:38:49.990Z,605
2017-04-20T07:39:30.599Z,645
2017-04-20T07:40:11.185Z,670
2017-04-20T07:40:51.781Z,675
2017-04-20T07:41:32.372Z,675
2017-04-20T07:42:12.972Z,675
2017-04-20T07:42:53.603Z,675
2017-04-20T07:43:34.207Z,665
2017-04-20T07:44:14.859Z,655
2017-04-20T07:44:55.460Z,655
2017-04-20T07:45:36.061Z,680
2017-04-20T07:46:16.935Z,685
2017-04-20T07:46:57.635Z,680
2017-04-20T07:47:38.209Z,675
2017-04-20T07:48:18.811Z,660
2017-04-20T07:48:59.414Z,645
2017-04-20T07:49:40.095Z,645
2017-04-20T07:50:20.661Z,640
2017-04-20T07:51:01.279Z,625
2017-04-20T07:51:41.884Z,610
2017-04-20T07:52:22.483Z,620
2017-04-20T07:53:03.124Z,625
2017-04-20T07:53:43.721Z,630
2017-04-20T07:54:24.318Z,625
2017-04-20T07:55:04.929Z,630
2017-04-20T07:55:45.556Z,620
2017-04-20T07:56:26.182Z,620
2017-04-20T07:57:06.778Z,605
2017-04-20T07:57:47.372Z,595
2017-04-20T07:58:27.988Z,585
2017-04-20T07:59:08.595Z,585
2017-04-20T07:59:49.193Z,590
2017-04-20T08:00:29.822Z,595
2017-04-20T08:01:10.431Z,590
2017-04-20T08:01:51.032Z,595
2017-04-20T08:02:31.643Z,590
2017-04-20T08:03:12.243Z,570
2017-04-20T08:03:52.896Z,565
2017-04-20T08:04:33.519Z,550
2017-04-20T08:05:14.214Z,515
2017-04-20T08:05:54.807Z,490
2017-04-20T08:06:35.398Z,470
2017-04-20T08:07:16.015Z,460
2017-04-20T08:07:56.614Z,455
2017-04-20T08:08:37.230Z,450
2017-04-20T08:09:18.078Z,445
2017-04-20T08:09:58.686Z,440
2017-04-20T08:10:39.305Z,435
2017-04-20T08:11:19.921Z,435
2017-04-20T08:12:00.523Z,435
2017-04-20T08:12:41.131Z,425
2017-04-20T08:13:21.725Z,425
2017-04-20T08:14:02.318Z,420
2017-04-20T08:14:42.942Z,415
2017-04-20T08:15:23.516Z,410
2017-04-20T08:16:04.113Z,405
2017-04-20T08:16:44.700Z,395
2017-04-20T08:17:25.275Z,390
2017-04-20T08:18:05.897Z,385
2017-04-20T08:18:46.499Z,380
2017-04-20T08:19:27.443Z,370
2017-04-20T08:20:08.048Z,365
2017-04-20T08:20:48.813Z,360
2017-04-20T08:21:29.369Z,355
2017-04-20T08:22:09.989Z,350
2017-04-20T08:22:50.638Z,340
2017-04-20T08:23:31.254Z,335
2017-04-20T08:24:11.839Z,330
2017-04-20T08:24:52.437Z,325
2017-04-20T08:25:33.041Z,320
2017-04-20T08:26:13.615Z,315
2017-04-20T08:26:54.240Z,310
2017-04-20T08:27:34.867Z,305
2017-04-20T08:28:15.483Z,305
2017-04-20T08:28:56.077Z,300
2017-04-20T08:29:36.680Z,300
2017-04-20T08:30:17.249Z,300
2017-04-20T08:30:57.853Z,295
2017-04-20T08:31:38.474Z,290
2017-04-20T08:32:19.109Z,285
2017-04-20T08:32:59.815Z,285
2017-04-20T08:33:40.402Z,280
2017-04-20T08:34:21.018Z,275
2017-04-20T08:35:01.629Z,275
2017-04-20T08:35:42.388Z,275
2017-04-20T08:36:22.974Z,270
2017-04-20T08:37:03.612Z,265
2017-04-20T08:37:44.301Z,260
2017-04-20T08:38:24.838Z,255
2017-04-20T08:39:05.425Z,250
2017-04-20T08:39:46.027Z,245
2017-04-20T08:40:26.638Z,245
2017-04-20T08:41:07.210Z,245
2017-04-20T08:41:47.833Z,245
2017-04-20T08:42:28.463Z,245
2017-04-20T08:43:09.158Z,250
2017-04-20T08:43:49.769Z,250
2017-04-20T08:44:30.349Z,250
2017-04-20T08:45:10.932Z,240
2017-04-20T08:45:51.540Z,235
2017-04-20T08:46:32.141Z,230
2017-04-20T08:47:12.760Z,230
2017-04-20T08:47:53.365Z,220
2017-04-20T08:48:33.969Z,215
2017-04-20T08:49:14.590Z,215
2017-04-20T08:49:55.173Z,210
2017-04-20T08:50:35.780Z,210
2017-04-20T08:51:16.354Z,210
2017-04-20T08:51:57.000Z,210
2017-04-20T08:52:37.613Z,210
2017-04-20T08:53:18.265Z,210
2017-04-20T08:53:58.864Z,210
2017-04-20T08:54:39.507Z,210
2017-04-20T08:55:20.131Z,210
2017-04-20T08:56:00.732Z,205
2017-04-20T08:56:41.424Z,200
2017-04-20T08:57:21.992Z,200
2017-04-20T08:58:02.657Z,200
2017-04-20T08:58:43.241Z,190
2017-04-20T08:59:23.907Z,190
2017-04-20T09:00:04.537Z,190
2017-04-20T09:00:45.181Z,190
2017-04-20T09:01:25.793Z,190
2017-04-20T09:02:06.407Z,200
2017-04-20T09:02:47.085Z,205
2017-04-20T09:03:27.597Z,205
2017-04-20T09:04:08.192Z,200
2017-04-20T09:04:48.796Z,200
2017-04-20T09:05:29.446Z,205
2017-04-20T09:06:10.094Z,195
2017-04-20T09:06:50.663Z,195
2017-04-20T09:07:31.299Z,195
2017-04-20T09:08:11.924Z,195
2017-04-20T09:08:52.551Z,190
2017-04-20T09:09:33.146Z,190
2017-04-20T09:10:13.851Z,185
2017-04-20T09:10:54.473Z,190
2017-04-20T09:11:35.080Z,195
2017-04-20T09:12:15.659Z,195
2017-04-20T09:12:56.252Z,200
2017-04-20T09:13:36.816Z,205
2017-04-20T09:14:17.418Z,200
2017-04-20T09:14:58.022Z,200
2017-04-20T09:15:38.596Z,195
2017-04-20T09:16:19.210Z,195
2017-04-20T09:16:59.778Z,195
2017-04-20T09:17:40.352Z,200
2017-04-20T09:18:20.937Z,200
2017-04-20T09:19:01.525Z,205
2017-04-20T09:19:42.120Z,205
2017-04-20T09:20:22.722Z,195
2017-04-20T09:21:03.303Z,190
2017-04-20T09:21:43.926Z,185
2017-04-20T09:22:24.505Z,180
2017-04-20T09:23:05.103Z,170
2017-04-20T09:23:45.681Z,170
2017-04-20T09:24:26.371Z,170
2017-04-20T09:25:06.939Z,170
2017-04-20T09:25:47.563Z,170
2017-04-20T09:26:28.118Z,160
2017-04-20T09:27:08.727Z,170
2017-04-20T09:27:49.299Z,170
2017-04-20T09:28:29.890Z,175
2017-04-20T09:29:10.503Z,175
2017-04-20T09:29:51.105Z,185
2017-04-20T09:30:31.680Z,140
2017-04-20T09:31:12.255Z,180
2017-04-20T09:31:52.832Z,180
2017-04-20T09:32:33.412Z,180
2017-04-20T09:33:14.111Z,175
2017-04-20T09:33:54.767Z,155
2017-04-20T09:34:35.355Z,180
2017-04-20T09:35:15.941Z,175
2017-04-20T09:35:56.530Z,180
2017-04-20T09:36:37.156Z,180